Time;durP1;ratioP1;P1;durP2;ratioP2;P2;SDS_P1;SDS_P2;PMS_P1;PMS_P2;Temp;Humidity;BMP_temperature;BMP_pressure;BME280_temperature;BME280_humidity;BME280_pressure;Samples;Min_cycle;Max_cycle;Signal;HPM_P1;HPM_P2
2022/04/11 00:01:04;;;;;;;1.75;1.30;;;;;;;;;;5061047;28;20368;-81
2022/04/11 00:03:29;;;;;;;1.10;1.00;;;;;;;;;;5078326;28;20056;-81
2022/04/11 00:05:55;;;;;;;1.63;1.10;;;;;;;;;;5077841;28;20446;-80
2022/04/11 00:08:21;;;;;;;2.75;1.38;;;;;;;;;;5060625;28;20024;-82
2022/04/11 00:10:47;;;;;;;1.85;1.25;;;;;;;;;;5077796;28;20024;-81
2022/04/11 00:13:13;;;;;;;1.40;1.02;;;;;;;;;;5077731;28;20497;-81
2022/04/11 00:15:40;;;;;;;1.67;1.27;;;;;;;;;;5060850;28;20040;-81
2022/04/11 00:18:06;;;;;;;1.63;1.27;;;;;;;;;;5078161;28;20054;-82
2022/04/11 00:20:32;;;;;;;3.85;1.70;;;;;;;;;;5077875;28;20035;-81
2022/04/11 00:22:57;;;;;;;1.85;1.27;;;;;;;;;;5078098;28;20039;-82
2022/04/11 00:25:23;;;;;;;1.55;1.20;;;;;;;;;;5095913;28;20111;-81
2022/04/11 00:27:48;;;;;;;1.70;1.23;;;;;;;;;;5060702;28;20024;-81
2022/04/11 00:30:14;;;;;;;1.33;1.23;;;;;;;;;;5077523;28;20036;-81
2022/04/11 00:32:40;;;;;;;1.63;1.05;;;;;;;;;;5077526;28;20028;-82
2022/04/11 00:35:07;;;;;;;1.73;1.17;;;;;;;;;;5076944;28;20359;-80
2022/04/11 00:37:32;;;;;;;1.45;1.13;;;;;;;;;;5077037;28;20420;-80
2022/04/11 00:39:58;;;;;;;1.77;1.13;;;;;;;;;;5076856;28;20028;-81
2022/04/11 00:42:26;;;;;;;1.90;1.10;;;;;;;;;;5076946;28;20055;-81
2022/04/11 00:44:52;;;;;;;1.55;1.17;;;;;;;;;;5077019;28;20024;-81
2022/04/11 00:47:17;;;;;;;1.40;1.20;;;;;;;;;;5059964;28;20232;-81
2022/04/11 00:49:43;;;;;;;1.40;1.10;;;;;;;;;;5076728;28;20058;-81
2022/04/11 00:52:09;;;;;;;1.95;1.13;;;;;;;;;;5094611;28;20032;-81
2022/04/11 00:54:34;;;;;;;1.52;1.27;;;;;;;;;;5076796;28;20038;-81
2022/04/11 00:56:59;;;;;;;2.03;1.30;;;;;;;;;;5077008;28;20028;-81
2022/04/11 00:59:25;;;;;;;1.23;1.13;;;;;;;;;;5076518;28;20030;-81
2022/04/11 01:01:50;;;;;;;1.40;1.30;;;;;;;;;;5059674;28;20152;-81
2022/04/11 01:04:26;;;;;;;1.63;1.17;;;;;;;;;;5076582;28;20081;-81
2022/04/11 01:06:56;;;;;;;2.33;1.38;;;;;;;;;;5094361;28;20031;-80
2022/04/11 01:09:23;;;;;;;1.23;1.00;;;;;;;;;;5076173;28;20032;-81
2022/04/11 01:11:49;;;;;;;3.10;1.13;;;;;;;;;;5076474;28;20459;-81
2022/04/11 01:14:14;;;;;;;1.02;0.90;;;;;;;;;;5094535;28;20042;-81
2022/04/11 01:16:49;;;;;;;2.92;1.42;;;;;;;;;;5076334;28;20028;-81
2022/04/11 01:19:15;;;;;;;1.58;1.00;;;;;;;;;;5075647;28;20466;-80
2022/04/11 01:21:44;;;;;;;1.83;1.27;;;;;;;;;;5077129;28;20028;-80
2022/04/11 01:24:10;;;;;;;1.25;1.10;;;;;;;;;;5059655;28;20047;-80
2022/04/11 01:26:36;;;;;;;0.95;0.95;;;;;;;;;;5077044;28;20144;-80
2022/04/11 01:29:04;;;;;;;1.92;1.30;;;;;;;;;;5076421;28;20028;-80
2022/04/11 01:31:30;;;;;;;1.70;1.25;;;;;;;;;;5059726;28;20016;-80
2022/04/11 01:33:55;;;;;;;1.10;1.00;;;;;;;;;;5075999;28;20035;-80
2022/04/11 01:36:21;;;;;;;3.20;1.10;;;;;;;;;;5094193;28;20039;-80
2022/04/11 01:38:46;;;;;;;1.67;1.20;;;;;;;;;;5059306;28;20050;-81
2022/04/11 01:41:11;;;;;;;3.85;1.50;;;;;;;;;;5093862;28;20031;-81
2022/04/11 01:43:37;;;;;;;1.30;1.20;;;;;;;;;;5075613;28;20031;-81
2022/04/11 01:46:02;;;;;;;1.90;1.23;;;;;;;;;;5093858;28;20042;-81
2022/04/11 01:48:28;;;;;;;0.95;0.95;;;;;;;;;;5094241;28;20056;-81
2022/04/11 01:50:53;;;;;;;1.90;1.17;;;;;;;;;;5093953;28;20028;-81
2022/04/11 01:53:20;;;;;;;3.05;1.40;;;;;;;;;;5093659;28;20035;-81
2022/04/11 01:55:46;;;;;;;1.42;1.33;;;;;;;;;;5075783;28;20026;-81
2022/04/11 01:58:12;;;;;;;1.17;1.00;;;;;;;;;;5093755;28;20039;-80
2022/04/11 02:00:38;;;;;;;1.73;1.30;;;;;;;;;;5093944;28;20035;-81
2022/04/11 02:03:05;;;;;;;3.28;1.38;;;;;;;;;;5059092;28;20455;-80
2022/04/11 02:05:30;;;;;;;1.67;1.40;;;;;;;;;;5058842;28;20483;-81
2022/04/11 02:07:56;;;;;;;1.30;1.10;;;;;;;;;;5075417;28;20154;-80
2022/04/11 02:10:22;;;;;;;2.95;1.38;;;;;;;;;;5075245;28;20035;-81
2022/04/11 02:12:47;;;;;;;1.20;1.10;;;;;;;;;;5075506;28;20032;-81
2022/04/11 02:15:13;;;;;;;1.77;1.17;;;;;;;;;;5058369;28;20068;-81
2022/04/11 02:17:39;;;;;;;1.35;1.08;;;;;;;;;;5075070;28;20051;-81
2022/04/11 02:20:05;;;;;;;2.60;1.20;;;;;;;;;;5075328;28;20034;-80
2022/04/11 02:22:47;;;;;;;5.47;1.25;;;;;;;;;;5058553;28;20039;-80
2022/04/11 02:25:13;;;;;;;3.35;1.30;;;;;;;;;;5075034;28;20094;-81
2022/04/11 02:27:38;;;;;;;1.40;1.00;;;;;;;;;;5058242;28;20478;-81
2022/04/11 02:30:05;;;;;;;1.55;1.15;;;;;;;;;;5093141;28;20032;-80
2022/04/11 02:32:30;;;;;;;1.58;1.02;;;;;;;;;;5074367;28;20035;-81
2022/04/11 02:34:56;;;;;;;2.67;1.05;;;;;;;;;;5093098;28;20024;-80
2022/04/11 02:37:21;;;;;;;1.30;1.00;;;;;;;;;;5075277;28;20081;-81
2022/04/11 02:39:46;;;;;;;3.13;1.38;;;;;;;;;;5058211;28;20553;-81
2022/04/11 02:42:26;;;;;;;2.88;1.40;;;;;;;;;;5074893;28;20028;-81
2022/04/11 02:44:52;;;;;;;1.42;1.10;;;;;;;;;;5092921;28;20059;-80
2022/04/11 02:47:17;;;;;;;2.08;1.25;;;;;;;;;;5058107;28;20059;-80
2022/04/11 02:49:43;;;;;;;2.25;1.15;;;;;;;;;;5075295;28;20032;-80
2022/04/11 02:52:09;;;;;;;1.73;1.20;;;;;;;;;;5092930;28;20383;-80
2022/04/11 02:54:36;;;;;;;1.33;1.17;;;;;;;;;;5058703;28;20021;-80
2022/04/11 02:57:01;;;;;;;0.90;0.90;;;;;;;;;;5074555;28;20058;-80
2022/04/11 02:59:27;;;;;;;3.67;1.10;;;;;;;;;;5093240;28;20534;-80
2022/04/11 03:01:52;;;;;;;1.63;1.00;;;;;;;;;;5093660;28;20032;-80
2022/04/11 03:04:18;;;;;;;5.57;1.45;;;;;;;;;;5093191;28;20028;-80
2022/04/11 03:06:43;;;;;;;0.95;0.90;;;;;;;;;;5075663;28;20467;-80
2022/04/11 03:09:09;;;;;;;2.55;1.20;;;;;;;;;;5041554;28;20032;-80
2022/04/11 03:11:34;;;;;;;1.77;1.00;;;;;;;;;;5058165;28;20020;-80
2022/04/11 03:14:00;;;;;;;2.28;1.20;;;;;;;;;;5058277;28;20020;-80
2022/04/11 03:16:26;;;;;;;8.52;1.20;;;;;;;;;;5092998;28;20055;-81
2022/04/11 03:18:51;;;;;;;1.63;1.10;;;;;;;;;;5074657;28;20463;-81
2022/04/11 03:21:16;;;;;;;3.13;1.15;;;;;;;;;;5074753;28;20032;-80
2022/04/11 03:23:42;;;;;;;1.75;1.08;;;;;;;;;;5092752;28;20058;-81
2022/04/11 03:26:07;;;;;;;2.13;1.17;;;;;;;;;;5075319;28;20035;-80
2022/04/11 03:28:33;;;;;;;1.10;1.00;;;;;;;;;;5074590;28;20070;-81
2022/04/11 03:30:59;;;;;;;1.65;1.20;;;;;;;;;;5092872;28;20104;-80
2022/04/11 03:33:24;;;;;;;1.52;1.05;;;;;;;;;;5074569;28;20024;-81
2022/04/11 03:35:50;;;;;;;2.10;1.20;;;;;;;;;;5093143;28;20039;-80
2022/04/11 03:38:16;;;;;;;1.42;1.00;;;;;;;;;;5058045;28;20225;-80
2022/04/11 03:40:41;;;;;;;3.05;1.40;;;;;;;;;;5074632;28;20024;-81
2022/04/11 03:43:06;;;;;;;1.42;1.27;;;;;;;;;;5060818;28;20045;-80
2022/04/11 03:45:32;;;;;;;1.58;1.10;;;;;;;;;;5078087;28;20059;-80
2022/04/11 03:47:57;;;;;;;2.67;1.27;;;;;;;;;;5061494;28;20028;-80
2022/04/11 03:50:23;;;;;;;1.35;1.08;;;;;;;;;;5062270;28;20536;-81
2022/04/11 03:52:49;;;;;;;4.57;1.23;;;;;;;;;;5062569;28;20115;-81
2022/04/11 03:55:14;;;;;;;1.80;1.30;;;;;;;;;;5061891;28;20066;-80
2022/04/11 03:57:40;;;;;;;4.45;1.13;;;;;;;;;;5095636;28;20051;-80
2022/04/11 04:00:05;;;;;;;2.72;1.30;;;;;;;;;;5077939;28;20032;-80
2022/04/11 04:02:31;;;;;;;1.30;1.10;;;;;;;;;;5097750;28;20044;-80
2022/04/11 04:04:56;;;;;;;2.63;1.40;;;;;;;;;;5044391;28;20131;-81
2022/04/11 04:07:22;;;;;;;3.08;1.35;;;;;;;;;;5098056;28;20019;-80
2022/04/11 04:09:47;;;;;;;1.52;1.10;;;;;;;;;;5081081;28;20036;-81
2022/04/11 04:12:13;;;;;;;1.83;1.30;;;;;;;;;;5061040;28;20028;-80
2022/04/11 04:14:39;;;;;;;1.58;1.20;;;;;;;;;;5077704;28;20415;-80
2022/04/11 04:17:04;;;;;;;1.73;1.20;;;;;;;;;;5095548;28;20080;-80
2022/04/11 04:19:30;;;;;;;2.70;1.25;;;;;;;;;;5095639;28;20069;-80
2022/04/11 04:21:55;;;;;;;5.10;1.60;;;;;;;;;;5077022;28;20115;-81
2022/04/11 04:24:22;;;;;;;2.35;1.35;;;;;;;;;;5060255;28;20460;-80
2022/04/11 04:26:51;;;;;;;2.75;1.42;;;;;;;;;;5077561;28;20055;-80
2022/04/11 04:29:16;;;;;;;2.15;1.42;;;;;;;;;;5077010;28;20521;-80
2022/04/11 04:31:43;;;;;;;3.60;1.30;;;;;;;;;;5076922;28;20040;-79
2022/04/11 04:34:08;;;;;;;2.28;1.23;;;;;;;;;;5077394;28;20039;-80
2022/04/11 04:36:33;;;;;;;1.70;1.35;;;;;;;;;;5077483;28;20028;-79
2022/04/11 04:39:00;;;;;;;2.55;1.50;;;;;;;;;;5077717;28;20028;-79
2022/04/11 04:41:26;;;;;;;2.80;1.42;;;;;;;;;;5095669;28;20107;-80
2022/04/11 04:43:51;;;;;;;2.05;1.67;;;;;;;;;;5078653;28;20078;-79
2022/04/11 04:46:17;;;;;;;3.47;1.35;;;;;;;;;;5078262;28;20028;-79
2022/04/11 04:48:42;;;;;;;5.82;1.65;;;;;;;;;;5077777;28;20467;-80
2022/04/11 04:51:08;;;;;;;4.88;2.30;;;;;;;;;;5096496;28;20023;-80
2022/04/11 04:53:34;;;;;;;14.40;2.53;;;;;;;;;;5094835;28;20027;-81
2022/04/11 04:55:59;;;;;;;13.55;2.80;;;;;;;;;;5096542;28;20028;-81
2022/04/11 04:58:24;;;;;;;14.20;3.65;;;;;;;;;;5095044;28;20024;-82
2022/04/11 05:00:50;;;;;;;14.00;3.55;;;;;;;;;;5078991;28;20043;-84
2022/04/11 05:03:15;;;;;;;11.55;3.90;;;;;;;;;;5095556;28;20161;-84
2022/04/11 05:05:40;;;;;;;15.20;4.38;;;;;;;;;;5077114;28;20036;-82
2022/04/11 05:08:06;;;;;;;11.63;3.10;;;;;;;;;;5077377;28;20033;-83
2022/04/11 05:10:32;;;;;;;15.98;3.40;;;;;;;;;;5043451;28;20141;-83
2022/04/11 05:12:57;;;;;;;16.15;3.65;;;;;;;;;;5076811;28;20429;-84
2022/04/11 05:15:23;;;;;;;11.95;3.45;;;;;;;;;;5060480;28;20038;-81
2022/04/11 05:17:49;;;;;;;14.95;3.42;;;;;;;;;;5079444;28;20402;-82
2022/04/11 05:20:14;;;;;;;9.75;2.95;;;;;;;;;;5062397;28;20031;-84
2022/04/11 05:22:39;;;;;;;9.90;2.50;;;;;;;;;;5096084;28;20024;-83
2022/04/11 05:25:05;;;;;;;5.38;2.67;;;;;;;;;;5096289;28;20100;-83
2022/04/11 05:27:31;;;;;;;8.35;3.38;;;;;;;;;;5077133;28;20121;-82
2022/04/11 05:29:56;;;;;;;11.15;2.75;;;;;;;;;;5044162;28;20058;-83
2022/04/11 05:32:22;;;;;;;13.27;3.00;;;;;;;;;;5061475;28;20114;-84
2022/04/11 05:34:47;;;;;;;9.73;2.40;;;;;;;;;;5078263;28;20024;-82
2022/04/11 05:37:13;;;;;;;5.15;2.40;;;;;;;;;;5061113;28;20107;-83
2022/04/11 05:39:39;;;;;;;7.70;2.50;;;;;;;;;;5045031;28;20115;-83
2022/04/11 05:42:06;;;;;;;10.57;2.55;;;;;;;;;;5077207;28;20031;-83
2022/04/11 05:44:31;;;;;;;7.95;2.45;;;;;;;;;;5061518;28;20035;-84
2022/04/11 05:46:57;;;;;;;7.95;2.97;;;;;;;;;;5077466;28;20471;-82
2022/04/11 05:49:23;;;;;;;6.80;2.88;;;;;;;;;;5061513;28;20047;-82
2022/04/11 05:51:48;;;;;;;5.45;2.35;;;;;;;;;;5075583;28;20028;-84
2022/04/11 05:54:14;;;;;;;3.65;2.05;;;;;;;;;;5063048;28;20359;-84
2022/04/11 05:56:40;;;;;;;4.82;2.17;;;;;;;;;;5096268;28;20032;-83
2022/04/11 05:59:05;;;;;;;3.85;2.10;;;;;;;;;;5060645;28;20123;-83
2022/04/11 06:01:31;;;;;;;5.95;2.20;;;;;;;;;;5076078;28;20536;-83
2022/04/11 06:03:57;;;;;;;3.72;2.00;;;;;;;;;;5042764;28;20141;-84
2022/04/11 06:06:22;;;;;;;3.33;1.88;;;;;;;;;;5076255;28;20035;-84
2022/04/11 06:08:48;;;;;;;4.40;2.33;;;;;;;;;;5094434;28;20027;-83
2022/04/11 06:11:13;;;;;;;3.55;2.13;;;;;;;;;;5076317;28;20474;-83
2022/04/11 06:13:42;;;;;;;3.53;2.20;;;;;;;;;;5059240;28;20032;-83
2022/04/11 06:16:08;;;;;;;3.10;2.10;;;;;;;;;;5093945;28;20184;-83
2022/04/11 06:18:33;;;;;;;5.63;1.95;;;;;;;;;;5076168;28;20499;-84
2022/04/11 06:20:59;;;;;;;6.07;2.03;;;;;;;;;;5075739;28;20486;-83
2022/04/11 06:23:25;;;;;;;4.45;1.73;;;;;;;;;;5094092;28;20080;-84
2022/04/11 06:25:50;;;;;;;2.78;2.00;;;;;;;;;;5075473;28;20178;-84
2022/04/11 06:28:17;;;;;;;6.00;2.30;;;;;;;;;;5093798;28;20048;-84
2022/04/11 06:30:42;;;;;;;3.00;2.10;;;;;;;;;;5094960;28;20028;-84
2022/04/11 06:33:08;;;;;;;7.88;2.60;;;;;;;;;;5095055;28;20538;-83
2022/04/11 06:35:33;;;;;;;4.38;1.83;;;;;;;;;;5079773;28;20478;-84
2022/04/11 06:37:58;;;;;;;4.53;1.77;;;;;;;;;;5098273;28;20028;-83
2022/04/11 06:40:24;;;;;;;3.58;2.35;;;;;;;;;;5097808;28;20097;-83
2022/04/11 06:42:49;;;;;;;4.35;1.95;;;;;;;;;;5080676;28;20486;-83
2022/04/11 06:45:14;;;;;;;4.18;1.77;;;;;;;;;;5081472;28;20024;-83
2022/04/11 06:47:40;;;;;;;3.47;1.80;;;;;;;;;;5097674;28;20035;-84
2022/04/11 06:50:06;;;;;;;4.22;2.10;;;;;;;;;;5077066;28;20028;-83
2022/04/11 06:52:32;;;;;;;3.10;2.10;;;;;;;;;;5060625;28;20028;-83
2022/04/11 06:54:57;;;;;;;4.13;1.85;;;;;;;;;;5060944;28;20031;-83
2022/04/11 06:57:24;;;;;;;3.15;1.90;;;;;;;;;;5079730;28;20032;-84
2022/04/11 06:59:50;;;;;;;4.72;1.77;;;;;;;;;;5098836;28;20027;-84
2022/04/11 07:02:16;;;;;;;3.97;2.00;;;;;;;;;;5079702;28;20035;-84
2022/04/11 07:04:42;;;;;;;2.28;1.70;;;;;;;;;;5093896;28;20024;-83
2022/04/11 07:07:07;;;;;;;3.80;1.90;;;;;;;;;;5075322;28;20028;-84
2022/04/11 07:09:32;;;;;;;2.63;1.50;;;;;;;;;;5093579;28;20039;-84
2022/04/11 07:11:58;;;;;;;2.35;1.50;;;;;;;;;;5093910;28;20032;-85
2022/04/11 07:14:24;;;;;;;2.58;1.88;;;;;;;;;;5075946;28;20034;-84
2022/04/11 07:16:51;;;;;;;5.95;1.80;;;;;;;;;;5093539;28;20491;-85
2022/04/11 07:19:16;;;;;;;3.70;1.70;;;;;;;;;;5079592;28;20024;-86
2022/04/11 07:21:42;;;;;;;3.13;1.88;;;;;;;;;;5045494;28;20028;-83
2022/04/11 07:24:08;;;;;;;2.28;1.58;;;;;;;;;;5079233;28;20588;-82
2022/04/11 07:26:33;;;;;;;8.98;2.28;;;;;;;;;;5062207;28;20426;-83
2022/04/11 07:28:59;;;;;;;2.35;1.52;;;;;;;;;;5097458;28;20077;-84
2022/04/11 07:31:27;;;;;;;2.10;1.48;;;;;;;;;;5097307;28;20030;-84
2022/04/11 07:33:52;;;;;;;2.50;1.48;;;;;;;;;;5063016;28;20062;-85
2022/04/11 07:36:18;;;;;;;3.55;1.40;;;;;;;;;;5097376;28;20394;-84
2022/04/11 07:38:43;;;;;;;5.20;1.73;;;;;;;;;;5079461;28;20466;-82
2022/04/11 07:41:09;;;;;;;4.28;1.80;;;;;;;;;;5097004;28;20062;-84
2022/04/11 07:43:34;;;;;;;4.85;1.50;;;;;;;;;;5062362;28;20060;-85
2022/04/11 07:46:01;;;;;;;2.42;1.60;;;;;;;;;;5098145;28;20439;-84
2022/04/11 07:48:26;;;;;;;7.60;1.83;;;;;;;;;;5079319;28;20028;-86
2022/04/11 07:50:52;;;;;;;6.55;1.40;;;;;;;;;;5098120;28;20056;-85
2022/04/11 07:53:17;;;;;;;5.55;1.83;;;;;;;;;;5097290;28;20070;-85
2022/04/11 07:55:44;;;;;;;4.93;2.00;;;;;;;;;;5062213;28;20024;-85
2022/04/11 07:58:09;;;;;;;4.72;1.73;;;;;;;;;;5079976;28;20527;-84
2022/04/11 08:00:35;;;;;;;3.60;1.63;;;;;;;;;;5100257;28;20470;-84
2022/04/11 08:03:00;;;;;;;4.50;1.70;;;;;;;;;;5100308;28;20089;-83
2022/04/11 08:05:26;;;;;;;3.28;1.85;;;;;;;;;;5078448;28;20032;-82
2022/04/11 08:07:52;;;;;;;4.15;1.50;;;;;;;;;;5078274;28;20498;-85
2022/04/11 08:10:18;;;;;;;7.43;1.77;;;;;;;;;;5078996;28;20036;-86
2022/04/11 08:12:54;;;;;;;6.78;1.90;;;;;;;;;;5078724;28;20383;-86
2022/04/11 08:15:20;;;;;;;5.85;1.88;;;;;;;;;;5078914;28;20020;-86
2022/04/11 08:17:46;;;;;;;3.28;1.75;;;;;;;;;;5061624;28;20020;-85
2022/04/11 08:20:11;;;;;;;4.28;1.42;;;;;;;;;;5078252;28;20415;-85
2022/04/11 08:22:37;;;;;;;5.05;1.65;;;;;;;;;;5096326;28;20490;-86
2022/04/11 08:25:03;;;;;;;2.53;1.40;;;;;;;;;;5096536;28;20576;-85
2022/04/11 08:27:29;;;;;;;12.30;1.80;;;;;;;;;;5077832;28;20502;-83
2022/04/11 08:29:54;;;;;;;6.78;1.90;;;;;;;;;;5076506;28;20028;-85
2022/04/11 08:32:19;;;;;;;5.93;1.80;;;;;;;;;;5096322;28;20059;-84
2022/04/11 08:34:45;;;;;;;2.90;1.60;;;;;;;;;;5045168;28;20028;-84
2022/04/11 08:37:10;;;;;;;8.60;1.73;;;;;;;;;;5078783;28;20036;-85
2022/04/11 08:39:36;;;;;;;2.08;1.50;;;;;;;;;;5077807;28;20020;-84
2022/04/11 08:42:02;;;;;;;5.95;2.03;;;;;;;;;;5077991;28;20040;-83
2022/04/11 08:44:28;;;;;;;3.85;1.70;;;;;;;;;;5060548;28;20077;-82
2022/04/11 08:47:02;;;;;;;4.43;2.13;;;;;;;;;;5077547;28;20039;-83
2022/04/11 08:49:29;;;;;;;4.00;1.60;;;;;;;;;;5077393;28;20035;-83
2022/04/11 08:51:54;;;;;;;3.38;1.60;;;;;;;;;;5077782;28;20035;-83
2022/04/11 08:54:20;;;;;;;3.97;1.90;;;;;;;;;;5095419;28;20461;-84
2022/04/11 08:56:45;;;;;;;3.92;2.10;;;;;;;;;;5044167;28;20081;-84
2022/04/11 08:59:11;;;;;;;7.60;1.67;;;;;;;;;;5077597;28;20020;-82
2022/04/11 09:01:36;;;;;;;3.20;1.90;;;;;;;;;;5095304;28;20057;-83
2022/04/11 09:04:02;;;;;;;3.10;1.50;;;;;;;;;;5077359;28;20028;-83
2022/04/11 09:06:31;;;;;;;9.52;1.88;;;;;;;;;;5060412;28;20090;-85
2022/04/11 09:09:00;;;;;;;2.13;1.42;;;;;;;;;;5060242;28;20489;-84
2022/04/11 09:11:37;;;;;;;3.58;1.73;;;;;;;;;;5078397;28;20032;-84
2022/04/11 09:14:07;;;;;;;3.70;1.80;;;;;;;;;;5077547;28;20078;-83
2022/04/11 09:16:48;;;;;;;4.25;1.60;;;;;;;;;;5077008;28;20020;-83
2022/04/11 09:19:24;;;;;;;4.93;1.77;;;;;;;;;;5094688;28;20386;-82
2022/04/11 09:21:54;;;;;;;4.72;1.80;;;;;;;;;;5095262;28;20032;-83
2022/04/11 09:24:22;;;;;;;2.42;1.70;;;;;;;;;;5094375;28;20097;-84
2022/04/11 09:26:49;;;;;;;5.43;2.00;;;;;;;;;;5076946;28;20043;-83
2022/04/11 09:29:17;;;;;;;4.90;2.00;;;;;;;;;;5076495;28;20099;-83
2022/04/11 09:31:43;;;;;;;5.03;1.80;;;;;;;;;;5094865;28;20020;-83
2022/04/11 09:34:19;;;;;;;3.78;1.77;;;;;;;;;;5076332;28;20028;-82
2022/04/11 09:36:52;;;;;;;3.78;1.88;;;;;;;;;;5060181;28;20024;-82
2022/04/11 09:39:26;;;;;;;5.90;2.15;;;;;;;;;;5076468;28;20428;-84
2022/04/11 09:41:52;;;;;;;3.92;2.22;;;;;;;;;;5076053;28;20075;-83
2022/04/11 09:44:32;;;;;;;7.18;1.95;;;;;;;;;;5076612;28;20020;-86
2022/04/11 09:47:03;;;;;;;4.75;2.13;;;;;;;;;;5076513;28;20054;-85
2022/04/11 09:49:29;;;;;;;4.07;2.30;;;;;;;;;;5059428;28;20023;-85
2022/04/11 09:52:02;;;;;;;4.10;2.10;;;;;;;;;;5075942;28;20471;-84
2022/04/11 09:54:28;;;;;;;4.85;1.85;;;;;;;;;;5094151;28;20442;-84
2022/04/11 09:56:54;;;;;;;8.93;2.47;;;;;;;;;;5042877;28;20089;-85
2022/04/11 09:59:23;;;;;;;2.13;1.90;;;;;;;;;;5094293;28;20106;-82
2022/04/11 10:01:50;;;;;;;6.93;2.22;;;;;;;;;;5094475;28;20414;-83
2022/04/11 10:04:21;;;;;;;4.63;2.50;;;;;;;;;;5059428;28;20028;-84
2022/04/11 10:06:47;;;;;;;5.32;2.65;;;;;;;;;;5076479;28;20027;-83
2022/04/11 10:09:16;;;;;;;4.20;2.10;;;;;;;;;;5059813;28;20114;-84
2022/04/11 10:11:43;;;;;;;4.30;2.15;;;;;;;;;;5076071;28;20057;-84
2022/04/11 10:14:15;;;;;;;3.83;2.42;;;;;;;;;;5059228;28;20064;-83
2022/04/11 10:16:44;;;;;;;3.17;2.25;;;;;;;;;;5077727;28;20028;-82
2022/04/11 10:19:11;;;;;;;4.38;2.13;;;;;;;;;;5100524;28;20028;-83
2022/04/11 10:21:40;;;;;;;3.95;1.90;;;;;;;;;;5100648;28;20020;-83
2022/04/11 10:24:13;;;;;;;2.35;1.83;;;;;;;;;;5061750;28;20020;-83
2022/04/11 10:26:46;;;;;;;3.75;1.98;;;;;;;;;;5059811;28;20032;-83
2022/04/11 10:29:31;;;;;;;;;;;;;;;;;;5059828;28;20123;-83
2022/04/11 10:32:09;;;;;;;2.42;1.63;;;;;;;;;;5076049;28;19947;-83
2022/04/11 10:34:54;;;;;;;2.60;1.70;;;;;;;;;;5075564;28;20028;-83
2022/04/11 10:37:23;;;;;;;3.45;1.70;;;;;;;;;;5094347;28;20352;-83
2022/04/11 10:39:50;;;;;;;2.38;1.80;;;;;;;;;;5075595;28;20493;-83
2022/04/11 10:42:23;;;;;;;1.63;1.35;;;;;;;;;;5075462;28;20032;-83
2022/04/11 10:44:54;;;;;;;;;;;;;;;;;;5059343;28;20508;-83
2022/04/11 10:47:21;;;;;;;3.35;1.42;;;;;;;;;;5093453;28;20337;-83
2022/04/11 10:49:50;;;;;;;5.22;1.75;;;;;;;;;;5058782;28;20038;-83
2022/04/11 10:52:33;;;;;;;3.63;1.65;;;;;;;;;;5094331;28;20047;-83
2022/04/11 10:55:20;;;;;;;2.80;1.98;;;;;;;;;;5079372;28;20024;-83
2022/04/11 10:57:53;;;;;;;2.15;1.60;;;;;;;;;;5079133;28;20546;-83
2022/04/11 11:00:26;;;;;;;2.67;1.60;;;;;;;;;;5098054;28;20467;-83
2022/04/11 11:02:56;;;;;;;;;;;;;;;;;;5079669;28;20031;-83
2022/04/11 11:05:31;;;;;;;4.20;1.77;;;;;;;;;;5097499;28;19915;-82
2022/04/11 11:08:11;;;;;;;2.28;1.80;;;;;;;;;;5097337;28;20024;-81
2022/04/11 11:10:40;;;;;;;10.23;1.90;;;;;;;;;;5097407;28;20471;-80
2022/04/11 11:13:34;;;;;;;2.67;1.42;;;;;;;;;;5097008;28;20031;-81
2022/04/11 11:16:11;;;;;;;5.40;1.48;;;;;;;;;;5097152;28;20016;-82
2022/04/11 11:18:50;;;;;;;2.13;1.55;;;;;;;;;;5079605;28;20078;-83
2022/04/11 11:21:27;;;;;;;1.58;1.38;;;;;;;;;;5078730;28;20115;-82
2022/04/11 11:24:10;;;;;;;2.60;1.67;;;;;;;;;;5097155;28;20103;-82
2022/04/11 11:26:59;;;;;;;2.05;1.20;;;;;;;;;;5078766;28;20051;-83
2022/04/11 11:29:30;;;;;;;1.70;1.45;;;;;;;;;;5061516;28;20110;-81
2022/04/11 11:31:57;;;;;;;2.58;1.55;;;;;;;;;;5062241;28;20103;-81
2022/04/11 11:34:24;;;;;;;2.75;1.50;;;;;;;;;;5078858;28;20028;-81
2022/04/11 11:36:53;;;;;;;3.00;1.40;;;;;;;;;;5097104;28;20440;-81
2022/04/11 11:39:21;;;;;;;2.45;1.40;;;;;;;;;;5046322;28;20028;-81
2022/04/11 11:41:51;;;;;;;1.75;1.40;;;;;;;;;;5078440;28;20032;-81
2022/04/11 11:44:17;;;;;;;2.17;1.48;;;;;;;;;;5045768;28;20032;-81
2022/04/11 11:46:52;;;;;;;4.28;1.60;;;;;;;;;;5078739;28;20036;-81
2022/04/11 11:49:18;;;;;;;2.63;1.92;;;;;;;;;;5097029;28;20035;-81
2022/04/11 11:51:43;;;;;;;2.95;1.33;;;;;;;;;;5061454;28;20020;-81
2022/04/11 11:54:09;;;;;;;1.95;1.35;;;;;;;;;;5078604;28;20077;-83
2022/04/11 11:56:45;;;;;;;2.00;1.40;;;;;;;;;;5061963;28;20090;-82
2022/04/11 11:59:16;;;;;;;2.05;1.42;;;;;;;;;;5096549;28;20417;-82
2022/04/11 12:04:36;;;;;;;3.90;1.43;;;;;;;;;;5080624;28;20027;-81
2022/04/11 12:07:01;;;;;;;1.85;1.48;;;;;;;;;;5078318;28;20020;-82
2022/04/11 12:09:45;;;;;;;1.52;1.23;;;;;;;;;;5061323;28;20471;-81
2022/04/11 12:12:11;;;;;;;3.38;1.40;;;;;;;;;;5096229;28;20525;-82
2022/04/11 12:15:14;;;;;;;1.88;1.40;;;;;;;;;;5061256;28;20124;-81
2022/04/11 12:17:45;;;;;;;1.70;1.30;;;;;;;;;;4978287;28;20030;-81
2022/04/11 12:20:17;;;;;;;1.98;1.30;;;;;;;;;;4978306;28;20076;-81
2022/04/11 12:23:01;;;;;;;2.13;1.23;;;;;;;;;;4995046;28;20040;-80
2022/04/11 12:25:29;;;;;;;2.53;1.30;;;;;;;;;;4994077;28;20046;-81
2022/04/11 12:28:16;;;;;;;3.00;1.15;;;;;;;;;;4995415;28;20038;-81
2022/04/11 12:30:46;;;;;;;2.08;1.40;;;;;;;;;;4978447;28;20022;-82
2022/04/11 12:33:35;;;;;;;3.38;1.40;;;;;;;;;;4979052;28;20038;-82
2022/04/11 12:36:27;;;;;;;2.92;1.52;;;;;;;;;;4982853;28;20038;-81
2022/04/11 12:38:54;;;;;;;1.55;1.20;;;;;;;;;;4969304;28;20154;-81
2022/04/11 12:41:36;;;;;;;2.70;1.17;;;;;;;;;;4993955;28;20402;-81
2022/04/11 12:44:17;;;;;;;1.40;1.30;;;;;;;;;;4993842;28;20038;-81
2022/04/11 12:46:45;;;;;;;1.42;1.00;;;;;;;;;;4977864;28;20025;-81
2022/04/11 12:49:16;;;;;;;1.38;1.20;;;;;;;;;;4994079;28;20174;-81
2022/04/11 12:51:43;;;;;;;1.48;1.10;;;;;;;;;;5030667;28;20069;-81
2022/04/11 12:54:10;;;;;;;1.80;1.33;;;;;;;;;;5077110;28;20036;-81
2022/04/11 12:56:39;;;;;;;1.83;1.38;;;;;;;;;;5095296;28;20020;-81
2022/04/11 12:59:05;;;;;;;2.42;1.50;;;;;;;;;;5060350;28;20050;-81
2022/04/11 13:01:53;;;;;;;2.22;1.50;;;;;;;;;;5076972;28;20479;-80
2022/04/11 13:04:19;;;;;;;2.72;1.17;;;;;;;;;;5077288;28;20080;-80
2022/04/11 13:06:45;;;;;;;2.25;1.20;;;;;;;;;;5060553;28;20024;-79
2022/04/11 13:09:10;;;;;;;1.00;0.90;;;;;;;;;;5060176;28;20134;-79
2022/04/11 13:11:40;;;;;;;1.55;1.10;;;;;;;;;;5076751;28;20074;-79
2022/04/11 13:14:06;;;;;;;1.20;1.10;;;;;;;;;;5076753;28;20502;-79
2022/04/11 13:19:15;;;;;;;4.53;1.35;;;;;;;;;;5095027;28;20043;-80
2022/04/11 13:21:41;;;;;;;3.03;1.60;;;;;;;;;;5094569;28;20032;-80
2022/04/11 13:24:06;;;;;;;1.30;1.20;;;;;;;;;;5076745;28;20069;-81
2022/04/11 13:26:32;;;;;;;2.53;1.50;;;;;;;;;;5059819;28;20035;-80
2022/04/11 13:28:57;;;;;;;2.78;1.67;;;;;;;;;;5094555;28;20035;-80
2022/04/11 13:31:23;;;;;;;1.92;1.30;;;;;;;;;;5076742;28;20442;-80
2022/04/11 13:33:48;;;;;;;1.85;1.50;;;;;;;;;;5059668;28;20500;-80
2022/04/11 13:36:13;;;;;;;1.65;1.27;;;;;;;;;;5043000;28;20122;-80
2022/04/11 13:38:39;;;;;;;1.63;1.40;;;;;;;;;;5076197;28;20475;-80
2022/04/11 13:41:04;;;;;;;1.80;1.58;;;;;;;;;;5042815;28;20028;-80
2022/04/11 13:43:30;;;;;;;2.38;1.80;;;;;;;;;;5076149;28;20036;-80
2022/04/11 13:45:55;;;;;;;3.35;1.33;;;;;;;;;;5059358;28;20386;-80
2022/04/11 13:48:22;;;;;;;1.55;1.33;;;;;;;;;;5076767;28;20031;-80
2022/04/11 13:50:47;;;;;;;1.52;1.40;;;;;;;;;;5076908;28;20020;-80
2022/04/11 13:53:12;;;;;;;2.65;1.50;;;;;;;;;;5076042;28;20540;-80
2022/04/11 13:55:38;;;;;;;2.65;1.77;;;;;;;;;;5076586;28;20385;-79
2022/04/11 13:58:03;;;;;;;2.88;1.42;;;;;;;;;;5076824;28;20546;-80
2022/04/11 14:00:29;;;;;;;1.75;1.15;;;;;;;;;;5060284;28;20024;-79
2022/04/11 14:02:54;;;;;;;2.75;1.50;;;;;;;;;;5077446;28;20024;-80
2022/04/11 14:05:20;;;;;;;2.83;1.38;;;;;;;;;;5095589;28;20053;-80
2022/04/11 14:07:45;;;;;;;2.80;1.67;;;;;;;;;;5076898;28;20036;-81
2022/04/11 14:10:11;;;;;;;2.60;1.58;;;;;;;;;;5043542;28;20036;-80
2022/04/11 14:12:37;;;;;;;4.00;1.60;;;;;;;;;;5076229;28;20024;-80
2022/04/11 14:15:02;;;;;;;2.22;1.60;;;;;;;;;;5058998;28;20036;-80
2022/04/11 14:17:27;;;;;;;2.03;1.48;;;;;;;;;;5059049;28;20093;-80
2022/04/11 14:19:53;;;;;;;2.00;1.23;;;;;;;;;;5042135;28;20028;-80
2022/04/11 14:22:18;;;;;;;1.42;1.20;;;;;;;;;;5058853;28;20028;-80
2022/04/11 14:24:44;;;;;;;1.85;1.30;;;;;;;;;;5058581;28;20056;-80
2022/04/11 14:27:09;;;;;;;2.90;1.48;;;;;;;;;;5060552;28;20028;-80
2022/04/11 14:29:34;;;;;;;2.05;1.20;;;;;;;;;;5061328;28;20471;-80
2022/04/11 14:32:00;;;;;;;1.58;1.27;;;;;;;;;;5096161;28;20020;-80
2022/04/11 14:34:25;;;;;;;3.13;1.70;;;;;;;;;;5095473;28;20432;-80
2022/04/11 14:36:51;;;;;;;3.45;1.27;;;;;;;;;;5061713;28;20035;-81
2022/04/11 14:39:17;;;;;;;1.77;1.20;;;;;;;;;;5044264;28;20028;-81
2022/04/11 14:41:43;;;;;;;1.35;1.23;;;;;;;;;;5078639;28;20024;-82
2022/04/11 14:44:08;;;;;;;1.67;1.33;;;;;;;;;;5097819;28;20032;-82
2022/04/11 14:46:34;;;;;;;2.35;1.52;;;;;;;;;;5078737;28;20428;-83
2022/04/11 14:48:59;;;;;;;2.58;1.48;;;;;;;;;;5078378;28;20032;-83
2022/04/11 14:51:25;;;;;;;2.13;1.38;;;;;;;;;;5078528;28;20467;-82